createdAt,value
2018-10-11T00:02:26.138Z,14.90
2018-10-11T00:04:55.386Z,14.90
2018-10-11T00:07:24.422Z,14.90
2018-10-11T00:09:53.163Z,14.90
2018-10-11T00:12:21.791Z,14.90
2018-10-11T00:14:50.375Z,14.90
2018-10-11T00:17:18.877Z,14.80
2018-10-11T00:19:47.512Z,14.80
2018-10-11T00:22:16.062Z,14.70
2018-10-11T00:24:44.729Z,14.70
2018-10-11T00:27:13.225Z,14.70
2018-10-11T00:29:41.817Z,14.60
2018-10-11T00:32:10.277Z,14.60
2018-10-11T00:34:38.830Z,14.50
2018-10-11T00:37:08.669Z,14.50
2018-10-11T00:39:37.255Z,14.40
2018-10-11T00:42:05.857Z,14.30
2018-10-11T00:44:34.462Z,14.30
2018-10-11T00:47:02.907Z,14.30
2018-10-11T00:49:31.408Z,14.20
2018-10-11T00:52:00.153Z,14.20
2018-10-11T00:54:28.760Z,14.10
2018-10-11T00:57:03.823Z,14.10
2018-10-11T00:59:33.079Z,14.00
2018-10-11T01:02:02.149Z,13.90
2018-10-11T01:04:30.743Z,13.90
2018-10-11T01:06:59.312Z,13.80
2018-10-11T01:09:27.851Z,13.80
2018-10-11T01:11:56.502Z,13.80
2018-10-11T01:14:25.152Z,13.80
2018-10-11T01:16:53.731Z,13.70
2018-10-11T01:19:22.237Z,13.60
2018-10-11T01:21:50.967Z,13.60
2018-10-11T01:24:19.678Z,13.50
2018-10-11T01:26:48.241Z,13.50
2018-10-11T01:29:16.810Z,13.40
2018-10-11T01:31:45.769Z,13.30
2018-10-11T01:34:15.787Z,13.20
2018-10-11T01:36:44.678Z,13.10
2018-10-11T01:39:14.494Z,13.10
2018-10-11T01:41:43.012Z,13.10
2018-10-11T01:44:13.658Z,13.00
2018-10-11T01:46:42.308Z,12.90
2018-10-11T01:49:11.156Z,12.90
2018-10-11T01:51:39.833Z,12.90
2018-10-11T01:54:08.514Z,12.80
2018-10-11T01:56:37.191Z,12.80
2018-10-11T01:59:06.071Z,12.80
2018-10-11T02:01:34.586Z,12.90
2018-10-11T02:04:03.295Z,12.90
2018-10-11T02:06:31.859Z,12.90
2018-10-11T02:09:00.372Z,12.90
2018-10-11T02:11:29.714Z,12.90
2018-10-11T02:13:58.391Z,12.90
2018-10-11T02:16:26.987Z,12.90
2018-10-11T02:18:55.635Z,12.80
2018-10-11T02:21:24.769Z,12.90
2018-10-11T02:23:53.331Z,12.80
2018-10-11T02:26:22.153Z,12.80
2018-10-11T02:28:50.915Z,12.70
2018-10-11T02:31:19.525Z,12.70
2018-10-11T02:33:48.169Z,12.60
2018-10-11T02:36:17.352Z,12.50
2018-10-11T02:38:45.946Z,12.50
2018-10-11T02:41:14.522Z,12.50
2018-10-11T02:43:43.947Z,12.40
2018-10-11T02:46:12.669Z,12.40
2018-10-11T02:48:41.594Z,12.40
2018-10-11T02:51:11.044Z,12.40
2018-10-11T02:53:39.765Z,12.40
2018-10-11T02:56:08.481Z,12.40
2018-10-11T02:58:48.196Z,12.50
2018-10-11T03:01:17.833Z,12.50
2018-10-11T03:03:46.484Z,12.50
2018-10-11T03:06:15.775Z,12.60
2018-10-11T03:08:44.336Z,12.60
2018-10-11T03:11:13.985Z,12.60
2018-10-11T03:13:43.296Z,12.60
2018-10-11T03:16:11.883Z,12.60
2018-10-11T03:18:40.609Z,12.60
2018-10-11T03:21:09.143Z,12.50
2018-10-11T03:23:37.825Z,12.50
2018-10-11T03:26:06.408Z,12.40
2018-10-11T03:28:35.046Z,12.40
2018-10-11T03:31:03.521Z,12.40
2018-10-11T03:33:32.051Z,12.40
2018-10-11T03:36:00.680Z,12.30
2018-10-11T03:38:29.264Z,12.30
2018-10-11T03:40:57.772Z,12.30
2018-10-11T03:43:27.203Z,12.30
2018-10-11T03:45:55.822Z,12.20
2018-10-11T03:48:24.281Z,12.20
2018-10-11T03:50:52.748Z,12.20
2018-10-11T03:53:22.620Z,12.30
2018-10-11T03:55:51.299Z,12.30
2018-10-11T03:58:19.991Z,12.30
2018-10-11T04:00:48.540Z,12.30
2018-10-11T04:03:17.074Z,12.30
2018-10-11T04:05:45.673Z,12.30
2018-10-11T04:08:14.259Z,12.30
2018-10-11T04:10:42.843Z,12.20
2018-10-11T04:13:11.851Z,12.20
2018-10-11T04:15:41.280Z,12.20
2018-10-11T04:18:10.032Z,12.20
2018-10-11T04:20:39.409Z,12.20
2018-10-11T04:23:08.199Z,12.20
2018-10-11T04:25:36.812Z,12.20
2018-10-11T04:28:05.494Z,12.20
2018-10-11T04:30:34.000Z,12.20
2018-10-11T04:33:02.770Z,12.20
2018-10-11T04:35:31.224Z,12.10
2018-10-11T04:37:59.911Z,12.00
2018-10-11T04:40:28.498Z,11.90
2018-10-11T04:42:57.088Z,11.90
2018-10-11T04:45:25.513Z,11.80
2018-10-11T04:47:54.070Z,11.80
2018-10-11T04:50:22.604Z,11.70
2018-10-11T04:52:51.144Z,11.70
2018-10-11T04:55:19.604Z,11.80
2018-10-11T04:57:48.742Z,11.80
2018-10-11T05:00:17.271Z,11.80
2018-10-11T05:02:45.712Z,11.70
2018-10-11T05:05:14.215Z,11.60
2018-10-11T05:07:42.711Z,11.60
2018-10-11T05:10:11.298Z,11.60
2018-10-11T05:12:39.843Z,11.60
2018-10-11T05:15:08.499Z,11.60
2018-10-11T05:17:36.951Z,11.50
2018-10-11T05:20:06.378Z,11.50
2018-10-11T05:22:34.888Z,11.50
2018-10-11T05:25:03.374Z,11.50
2018-10-11T05:27:31.866Z,11.50
2018-10-11T05:30:00.340Z,11.60
2018-10-11T05:32:28.821Z,11.60
2018-10-11T05:34:57.396Z,11.60
2018-10-11T05:37:25.951Z,11.70
2018-10-11T05:39:54.422Z,11.70
2018-10-11T05:42:23.043Z,11.70
2018-10-11T05:44:51.816Z,11.80
2018-10-11T05:47:20.430Z,11.80
2018-10-11T05:49:49.003Z,11.80
2018-10-11T05:52:17.597Z,11.90
2018-10-11T05:54:46.180Z,11.90
2018-10-11T05:57:14.688Z,12.00
2018-10-11T05:59:43.278Z,12.00
2018-10-11T06:02:11.763Z,12.00
2018-10-11T06:04:40.502Z,12.10
2018-10-11T06:07:09.004Z,12.20
2018-10-11T06:09:37.584Z,12.30
2018-10-11T06:12:06.344Z,12.30
2018-10-11T06:14:34.861Z,12.40
2018-10-11T06:17:03.433Z,12.60
2018-10-11T06:19:31.931Z,12.80
2018-10-11T06:22:00.589Z,13.10
2018-10-11T06:24:29.074Z,13.40
2018-10-11T06:26:57.529Z,13.70
2018-10-11T06:29:26.160Z,13.90
2018-10-11T06:31:54.692Z,14.20
2018-10-11T06:34:23.372Z,14.40
2018-10-11T06:36:52.217Z,14.70
2018-10-11T06:39:20.851Z,14.90
2018-10-11T06:41:49.297Z,15.00
2018-10-11T06:44:17.883Z,15.10
2018-10-11T06:46:46.706Z,15.30
2018-10-11T06:49:15.278Z,15.50
2018-10-11T06:51:43.856Z,15.80
2018-10-11T06:54:13.042Z,16.10
2018-10-11T06:56:41.545Z,16.20
2018-10-11T06:59:10.806Z,16.20
2018-10-11T07:01:39.300Z,16.20
2018-10-11T07:04:07.774Z,16.40
2018-10-11T07:06:36.557Z,16.50
2018-10-11T07:09:07.189Z,16.60
2018-10-11T07:11:35.739Z,16.90
2018-10-11T07:14:04.532Z,17.20
2018-10-11T07:16:32.968Z,17.30
2018-10-11T07:19:01.430Z,17.60
2018-10-11T07:21:30.120Z,17.60
2018-10-11T07:23:58.681Z,17.70
2018-10-11T07:26:27.167Z,18.00
2018-10-11T07:28:55.768Z,18.00
2018-10-11T07:31:24.338Z,18.20
2018-10-11T07:33:52.787Z,18.40
2018-10-11T07:36:21.238Z,18.20
2018-10-11T07:38:49.711Z,18.10
2018-10-11T07:41:18.160Z,18.40
2018-10-11T07:43:46.691Z,18.30
2018-10-11T07:46:15.223Z,18.50
2018-10-11T07:48:44.065Z,18.60
2018-10-11T07:51:13.120Z,18.60
2018-10-11T07:53:41.574Z,18.50
2018-10-11T07:56:10.225Z,18.70
2018-10-11T07:58:38.839Z,18.80
2018-10-11T08:01:07.401Z,18.60
2018-10-11T08:03:35.930Z,19.00
2018-10-11T08:06:04.589Z,19.20
2018-10-11T08:08:33.177Z,18.80
2018-10-11T08:11:01.706Z,19.00
2018-10-11T08:13:30.253Z,19.10
2018-10-11T08:15:58.787Z,19.20
2018-10-11T08:18:27.265Z,19.10
2018-10-11T08:20:55.956Z,19.60
2018-10-11T08:23:24.958Z,19.70
2018-10-11T08:25:53.604Z,19.90
2018-10-11T08:28:21.974Z,20.20
2018-10-11T08:30:50.433Z,20.00
2018-10-11T08:33:18.895Z,20.30
2018-10-11T08:35:47.398Z,20.30
2018-10-11T08:38:16.068Z,20.20
2018-10-11T08:40:44.414Z,20.30
2018-10-11T08:43:12.881Z,20.00
2018-10-11T08:45:41.441Z,20.00
2018-10-11T08:48:10.456Z,20.00
2018-10-11T08:50:39.152Z,20.70
2018-10-11T08:53:08.386Z,21.00
2018-10-11T08:55:36.962Z,21.20
2018-10-11T08:58:05.474Z,21.20
2018-10-11T09:00:33.923Z,21.50
2018-10-11T09:03:02.690Z,21.40
2018-10-11T09:05:31.353Z,21.80
2018-10-11T09:07:59.903Z,22.00
2018-10-11T09:10:38.108Z,21.70
2018-10-11T09:12:56.913Z,22.10
2018-10-11T09:15:25.407Z,22.20
2018-10-11T09:17:54.255Z,23.00
2018-10-11T09:20:22.756Z,23.40
2018-10-11T09:22:51.207Z,24.10
2018-10-11T09:25:19.738Z,24.50
2018-10-11T09:27:48.245Z,24.90
2018-10-11T09:30:16.818Z,24.40
2018-10-11T09:32:45.252Z,24.10
2018-10-11T09:35:13.924Z,23.50
2018-10-11T09:37:42.375Z,23.70
2018-10-11T09:40:10.977Z,23.60
2018-10-11T09:42:39.743Z,23.20
2018-10-11T09:45:08.245Z,23.60
2018-10-11T09:47:36.710Z,23.80
2018-10-11T09:50:05.336Z,24.20
2018-10-11T09:52:33.879Z,24.60
2018-10-11T09:55:02.359Z,24.60
2018-10-11T09:57:31.932Z,24.30
2018-10-11T10:00:01.559Z,23.80
2018-10-11T10:02:30.997Z,24.10
2018-10-11T10:05:03.756Z,24.10
2018-10-11T10:07:39.134Z,23.90
2018-10-11T10:10:08.064Z,24.10
2018-10-11T10:12:36.585Z,24.40
2018-10-11T10:15:05.557Z,25.00
2018-10-11T10:17:34.268Z,25.00
2018-10-11T10:20:02.752Z,24.70
2018-10-11T10:22:31.224Z,24.00
2018-10-11T10:24:59.778Z,24.20
2018-10-11T10:27:28.530Z,24.50
2018-10-11T10:29:57.056Z,24.70
2018-10-11T10:32:25.539Z,24.60
2018-10-11T10:34:54.060Z,24.80
2018-10-11T10:37:22.539Z,24.70
2018-10-11T10:39:51.066Z,25.00
2018-10-11T10:42:19.508Z,25.10
2018-10-11T10:44:48.008Z,25.40
2018-10-11T10:47:16.547Z,25.70
2018-10-11T10:49:45.013Z,25.30
2018-10-11T10:52:13.532Z,25.40
2018-10-11T10:54:42.136Z,25.60
2018-10-11T10:57:10.681Z,25.50
2018-10-11T10:59:45.813Z,25.80
2018-10-11T11:02:14.339Z,25.20
2018-10-11T11:04:42.796Z,25.00
2018-10-11T11:07:11.274Z,24.80
2018-10-11T11:09:39.849Z,25.10
2018-10-11T11:12:08.334Z,25.40
2018-10-11T11:14:36.841Z,25.00
2018-10-11T11:17:05.426Z,25.20
2018-10-11T11:19:33.915Z,25.20
2018-10-11T11:22:02.401Z,25.00
2018-10-11T11:24:30.863Z,25.20
2018-10-11T11:26:59.362Z,25.70
2018-10-11T11:29:27.818Z,26.20
2018-10-11T11:31:56.302Z,26.00
2018-10-11T11:34:24.783Z,25.40
2018-10-11T11:36:53.258Z,25.10
2018-10-11T11:39:21.833Z,25.10
2018-10-11T11:41:50.408Z,25.50
2018-10-11T11:44:18.901Z,25.80
2018-10-11T11:46:47.460Z,25.90
2018-10-11T11:49:15.954Z,25.70
2018-10-11T11:51:44.408Z,25.50
2018-10-11T11:54:17.004Z,25.60
2018-10-11T11:56:45.584Z,25.80
2018-10-11T11:59:14.166Z,26.20
2018-10-11T12:01:42.600Z,25.90
2018-10-11T12:04:11.075Z,26.00
2018-10-11T12:06:39.797Z,26.10
2018-10-11T12:09:12.116Z,25.90
2018-10-11T12:11:40.887Z,25.90
2018-10-11T12:14:09.693Z,25.90
2018-10-11T12:16:38.551Z,26.10
2018-10-11T12:19:08.206Z,26.20
2018-10-11T12:21:36.699Z,26.30
2018-10-11T12:24:05.188Z,26.80
2018-10-11T12:26:33.687Z,26.50
2018-10-11T12:29:02.319Z,26.70
2018-10-11T12:31:30.666Z,26.10
2018-10-11T12:33:59.209Z,26.10
2018-10-11T12:36:27.746Z,25.90
2018-10-11T12:38:56.562Z,25.80
2018-10-11T12:41:24.876Z,26.00
2018-10-11T12:43:53.315Z,26.10
2018-10-11T12:46:21.764Z,26.10
2018-10-11T12:48:50.370Z,26.30
2018-10-11T12:51:19.776Z,26.40
2018-10-11T12:53:48.634Z,26.20
2018-10-11T12:56:16.807Z,26.10
2018-10-11T12:58:45.964Z,26.00
2018-10-11T13:01:18.843Z,25.70
2018-10-11T13:03:43.000Z,26.10
2018-10-11T13:06:11.472Z,26.10
2018-10-11T13:08:39.946Z,26.60
2018-10-11T13:11:08.574Z,26.30
2018-10-11T13:13:37.089Z,26.20
2018-10-11T13:16:05.572Z,26.20
2018-10-11T13:18:34.066Z,26.10
2018-10-11T13:21:02.552Z,26.40
2018-10-11T13:23:31.707Z,26.10
2018-10-11T13:26:00.196Z,25.80
2018-10-11T13:28:28.671Z,25.70
2018-10-11T13:30:57.253Z,25.50
2018-10-11T13:33:25.768Z,25.60
2018-10-11T13:35:54.402Z,25.70
2018-10-11T13:38:22.849Z,25.70
2018-10-11T13:40:55.071Z,25.80
2018-10-11T13:43:20.134Z,25.70
2018-10-11T13:45:53.405Z,25.70
2018-10-11T13:48:17.565Z,25.50
2018-10-11T13:50:46.040Z,25.50
2018-10-11T13:53:18.365Z,25.40
2018-10-11T13:55:50.832Z,25.40
2018-10-11T13:58:13.627Z,25.20
2018-10-11T14:00:42.619Z,25.20
2018-10-11T14:03:11.407Z,25.20
2018-10-11T14:05:40.164Z,25.10
2018-10-11T14:08:09.434Z,25.20
2018-10-11T14:10:38.085Z,25.10
2018-10-11T14:13:12.986Z,25.00
2018-10-11T14:15:35.147Z,24.80
2018-10-11T14:18:07.630Z,24.70
2018-10-11T14:20:32.314Z,24.40
2018-10-11T14:23:00.788Z,24.30
2018-10-11T14:25:29.392Z,24.30
2018-10-11T14:27:57.864Z,24.20
2018-10-11T14:30:26.374Z,24.10
2018-10-11T14:32:55.381Z,24.00
2018-10-11T14:35:24.683Z,24.00
2018-10-11T14:37:53.371Z,24.00
2018-10-11T14:40:21.916Z,24.00
2018-10-11T14:42:50.410Z,24.00
2018-10-11T14:45:18.900Z,23.90
2018-10-11T14:47:47.398Z,23.90
2018-10-11T14:50:15.928Z,23.80
2018-10-11T14:52:44.412Z,23.70
2018-10-11T14:57:41.385Z,23.60
2018-10-11T15:00:09.952Z,23.50
2018-10-11T15:02:38.956Z,23.50
2018-10-11T15:05:07.951Z,23.40
2018-10-11T15:07:36.518Z,23.30
2018-10-11T15:10:05.426Z,23.30
2018-10-11T15:12:34.480Z,23.20
2018-10-11T15:15:03.134Z,23.20
2018-10-11T15:17:31.954Z,23.20
2018-10-11T15:20:00.580Z,23.10
2018-10-11T15:22:29.896Z,23.00
2018-10-11T15:24:58.460Z,23.00
2018-10-11T15:27:26.976Z,23.00
2018-10-11T15:29:55.468Z,22.90
2018-10-11T15:32:23.955Z,22.90
2018-10-11T15:34:52.459Z,22.90
2018-10-11T15:37:20.949Z,22.80
2018-10-11T15:39:49.417Z,22.70
2018-10-11T15:42:17.910Z,22.60
2018-10-11T15:44:46.351Z,22.60
2018-10-11T15:47:14.825Z,22.50
2018-10-11T15:49:44.241Z,22.40
2018-10-11T15:52:13.184Z,22.40
2018-10-11T15:54:41.657Z,22.30
2018-10-11T15:57:10.227Z,22.20
2018-10-11T15:59:38.724Z,22.10
2018-10-11T16:02:07.276Z,22.10
2018-10-11T16:04:35.857Z,22.00
2018-10-11T16:07:04.374Z,21.90
2018-10-11T16:09:32.895Z,21.80
2018-10-11T16:12:02.059Z,21.70
2018-10-11T16:14:30.533Z,21.60
2018-10-11T16:16:59.130Z,21.50
2018-10-11T16:19:27.585Z,21.40
2018-10-11T16:21:56.146Z,21.30
2018-10-11T16:24:24.626Z,21.20
2018-10-11T16:26:53.101Z,21.10
2018-10-11T16:29:21.549Z,21.00
2018-10-11T16:31:49.999Z,20.90
2018-10-11T16:34:18.496Z,20.70
2018-10-11T16:36:47.030Z,20.60
2018-10-11T16:39:15.569Z,20.50
2018-10-11T16:41:44.008Z,20.50
2018-10-11T16:44:12.725Z,20.30
2018-10-11T16:46:41.316Z,20.20
2018-10-11T16:49:10.154Z,20.00
2018-10-11T16:51:39.040Z,19.90
2018-10-11T16:54:07.836Z,19.70
2018-10-11T16:56:36.338Z,19.50
2018-10-11T16:59:04.880Z,19.30
2018-10-11T17:01:33.384Z,19.20
2018-10-11T17:04:01.964Z,19.00
2018-10-11T17:06:30.951Z,18.90
2018-10-11T17:09:00.102Z,18.70
2018-10-11T17:11:28.687Z,18.40
2018-10-11T17:13:57.565Z,18.30
2018-10-11T17:16:26.063Z,18.00
2018-10-11T17:18:54.728Z,17.90
2018-10-11T17:21:23.409Z,17.70
2018-10-11T17:23:52.104Z,17.50
2018-10-11T17:26:21.967Z,17.40
2018-10-11T17:28:50.551Z,17.20
2018-10-11T17:31:19.851Z,17.10
2018-10-11T17:33:48.405Z,17.00
2018-10-11T17:36:16.897Z,17.00
2018-10-11T17:38:45.685Z,17.00
2018-10-11T17:41:14.151Z,16.90
2018-10-11T17:43:43.539Z,16.80
2018-10-11T17:46:12.094Z,16.80
2018-10-11T17:48:40.558Z,16.70
2018-10-11T17:51:09.045Z,16.60
2018-10-11T17:53:37.534Z,16.60
2018-10-11T17:56:06.116Z,16.50
2018-10-11T17:58:34.561Z,16.50
2018-10-11T18:01:03.073Z,16.50
2018-10-11T18:03:31.567Z,16.40
2018-10-11T18:06:00.117Z,16.40
2018-10-11T18:08:28.600Z,16.20
2018-10-11T18:10:57.054Z,16.20
2018-10-11T18:13:25.559Z,16.10
2018-10-11T18:15:54.070Z,16.00
2018-10-11T18:18:22.554Z,16.00
2018-10-11T18:20:51.129Z,16.00
2018-10-11T18:23:19.596Z,15.90
2018-10-11T18:25:48.139Z,15.80
2018-10-11T18:28:16.700Z,15.70
2018-10-11T18:30:45.307Z,15.60
2018-10-11T18:33:13.751Z,15.50
2018-10-11T18:35:42.290Z,15.50
2018-10-11T18:38:10.764Z,15.40
2018-10-11T18:40:39.326Z,15.40
2018-10-11T18:43:07.835Z,15.30
2018-10-11T18:45:36.429Z,15.30
2018-10-11T18:48:04.937Z,15.30
2018-10-11T18:50:33.450Z,15.20
2018-10-11T18:53:01.896Z,15.10
2018-10-11T18:55:30.471Z,15.10
2018-10-11T18:57:59.227Z,15.10
2018-10-11T19:00:27.661Z,15.10
2018-10-11T19:02:56.124Z,15.10
2018-10-11T19:05:25.439Z,15.10
2018-10-11T19:07:54.012Z,15.10
2018-10-11T19:10:22.453Z,15.00
2018-10-11T19:12:50.895Z,15.00
2018-10-11T19:15:19.372Z,14.90
2018-10-11T19:17:47.885Z,14.80
2018-10-11T19:20:16.381Z,14.70
2018-10-11T19:22:44.860Z,14.50
2018-10-11T19:25:13.395Z,14.40
2018-10-11T19:27:41.843Z,14.30
2018-10-11T19:30:10.612Z,14.20
2018-10-11T19:32:39.075Z,14.10
2018-10-11T19:35:07.570Z,14.00
2018-10-11T19:37:36.028Z,13.90
2018-10-11T19:40:04.496Z,13.90
2018-10-11T19:42:32.984Z,13.80
2018-10-11T19:45:01.450Z,13.70
2018-10-11T19:47:29.980Z,13.60
2018-10-11T19:49:58.557Z,13.60
2018-10-11T19:52:27.139Z,13.50
2018-10-11T19:54:55.612Z,13.50
2018-10-11T19:57:24.069Z,13.40
2018-10-11T19:59:52.689Z,13.30
2018-10-11T20:02:21.169Z,13.20
2018-10-11T20:04:49.670Z,13.10
2018-10-11T20:07:18.256Z,13.10
2018-10-11T20:09:46.783Z,13.00
2018-10-11T20:12:15.278Z,13.00
2018-10-11T20:14:43.751Z,12.90
2018-10-11T20:17:12.241Z,12.90
2018-10-11T20:19:40.781Z,12.90
2018-10-11T20:22:10.195Z,12.90
2018-10-11T20:24:38.799Z,12.90
2018-10-11T20:27:07.340Z,12.80
2018-10-11T20:29:36.181Z,12.80
2018-10-11T20:32:04.668Z,12.80
2018-10-11T20:34:33.116Z,12.70
2018-10-11T20:37:01.567Z,12.60
2018-10-11T20:39:30.104Z,12.60
2018-10-11T20:41:58.577Z,12.50
2018-10-11T20:44:27.688Z,12.50
2018-10-11T20:46:56.416Z,12.40
2018-10-11T20:49:25.034Z,12.40
2018-10-11T20:51:53.958Z,12.40
2018-10-11T20:54:29.057Z,12.50
2018-10-11T20:56:57.593Z,12.60
2018-10-11T20:59:26.241Z,12.90
2018-10-11T21:01:54.812Z,13.00
2018-10-11T21:04:23.301Z,13.20
2018-10-11T21:06:51.725Z,13.40
2018-10-11T21:09:20.167Z,13.40
2018-10-11T21:11:48.671Z,13.40
2018-10-11T21:14:17.145Z,13.50
2018-10-11T21:16:45.816Z,13.70
2018-10-11T21:19:14.328Z,14.00
2018-10-11T21:21:42.873Z,14.10
2018-10-11T21:24:11.299Z,14.30
2018-10-11T21:26:39.776Z,14.30
2018-10-11T21:29:08.198Z,14.30
2018-10-11T21:31:36.655Z,14.20
2018-10-11T21:34:05.132Z,14.00
2018-10-11T21:36:34.328Z,13.80
2018-10-11T21:39:03.223Z,13.60
2018-10-11T21:41:31.663Z,13.40
2018-10-11T21:44:00.172Z,13.30
2018-10-11T21:46:28.806Z,13.30
2018-10-11T21:48:57.205Z,13.40
2018-10-11T21:51:25.772Z,13.80
2018-10-11T21:53:54.227Z,14.20
2018-10-11T21:56:22.680Z,14.40
2018-10-11T21:58:51.115Z,14.80
2018-10-11T22:01:21.593Z,14.90
2018-10-11T22:03:50.371Z,15.00
2018-10-11T22:06:18.928Z,15.10
2018-10-11T22:08:47.432Z,15.10
2018-10-11T22:11:15.921Z,15.20
2018-10-11T22:13:44.707Z,15.20
2018-10-11T22:16:13.227Z,15.20
2018-10-11T22:18:42.219Z,15.10
2018-10-11T22:21:11.701Z,15.10
2018-10-11T22:23:41.840Z,15.00
2018-10-11T22:26:10.911Z,15.10
2018-10-11T22:28:40.128Z,15.00
2018-10-11T22:31:10.044Z,14.80
2018-10-11T22:33:38.540Z,14.70
2018-10-11T22:36:07.060Z,14.70
2018-10-11T22:38:36.532Z,14.60
2018-10-11T22:41:05.030Z,14.50
2018-10-11T22:43:33.591Z,14.40
2018-10-11T22:46:02.468Z,14.30
2018-10-11T22:48:30.915Z,14.30
2018-10-11T22:50:59.416Z,14.20
2018-10-11T22:53:27.942Z,14.20
2018-10-11T22:55:56.411Z,14.30
2018-10-11T22:58:24.876Z,14.40
2018-10-11T23:00:53.340Z,14.40
2018-10-11T23:03:21.779Z,14.40
2018-10-11T23:05:50.324Z,14.40
2018-10-11T23:08:18.759Z,14.40
2018-10-11T23:10:47.203Z,14.40
2018-10-11T23:13:15.647Z,14.40
2018-10-11T23:15:44.105Z,14.40
2018-10-11T23:18:12.705Z,14.40
2018-10-11T23:20:41.172Z,14.30
2018-10-11T23:23:09.695Z,14.20
2018-10-11T23:25:38.815Z,14.20
2018-10-11T23:28:07.292Z,14.20
2018-10-11T23:30:35.734Z,14.10
2018-10-11T23:33:04.205Z,14.10
2018-10-11T23:35:32.834Z,14.00
2018-10-11T23:38:01.296Z,13.90
2018-10-11T23:40:29.783Z,13.90
2018-10-11T23:42:58.243Z,13.80
2018-10-11T23:45:26.679Z,13.80
2018-10-11T23:47:55.219Z,13.80
2018-10-11T23:50:23.651Z,13.80
2018-10-11T23:52:52.306Z,13.80
2018-10-11T23:55:20.747Z,13.70
2018-10-11T23:57:49.346Z,13.60
